sensor_id;sensor_type;location;lat;lon;timestamp;pressure;altitude;pressure_sealevel;temperature;humidity
77737;BME280;66903;59.926;30.404;2023-03-01T00:02:57;101148.91;;;23.70;26.89
77737;BME280;66903;59.926;30.404;2023-03-01T00:07:58;101160.00;;;23.72;27.00
77737;BME280;66903;59.926;30.404;2023-03-01T00:12:59;101153.75;;;23.75;27.44
77737;BME280;66903;59.926;30.404;2023-03-01T00:17:59;101152.56;;;23.76;26.55
77737;BME280;66903;59.926;30.404;2023-03-01T00:23:00;101156.63;;;23.70;26.62
77737;BME280;66903;59.926;30.404;2023-03-01T00:28:00;101156.63;;;23.65;26.71
77737;BME280;66903;59.926;30.404;2023-03-01T00:33:01;101154.66;;;23.60;26.47
77737;BME280;66903;59.926;30.404;2023-03-01T00:38:02;101138.16;;;23.52;26.48
77737;BME280;66903;59.926;30.404;2023-03-01T00:43:04;101137.31;;;23.52;26.48
77737;BME280;66903;59.926;30.404;2023-03-01T00:48:04;101159.25;;;23.51;26.58
77737;BME280;66903;59.926;30.404;2023-03-01T00:53:05;101157.84;;;23.49;26.25
77737;BME280;66903;59.926;30.404;2023-03-01T00:58:06;101149.31;;;23.49;26.51
77737;BME280;66903;59.926;30.404;2023-03-01T01:03:06;101150.72;;;23.46;26.41
77737;BME280;66903;59.926;30.404;2023-03-01T01:08:07;101157.84;;;23.49;26.41
77737;BME280;66903;59.926;30.404;2023-03-01T01:13:07;101157.00;;;23.48;26.19
77737;BME280;66903;59.926;30.404;2023-03-01T01:18:08;101150.44;;;23.48;26.35
77737;BME280;66903;59.926;30.404;2023-03-01T01:23:08;101157.00;;;23.48;26.29
77737;BME280;66903;59.926;30.404;2023-03-01T01:28:09;101157.56;;;23.50;26.16
77737;BME280;66903;59.926;30.404;2023-03-01T01:33:09;101164.97;;;23.51;26.29
77737;BME280;66903;59.926;30.404;2023-03-01T01:38:35;101167.50;;;23.58;26.24
77737;BME280;66903;59.926;30.404;2023-03-01T01:44:14;101155.53;;;23.56;26.64
77737;BME280;66903;59.926;30.404;2023-03-01T01:54:23;101161.25;;;23.51;26.80
77737;BME280;66903;59.926;30.404;2023-03-01T01:59:27;101164.38;;;23.49;26.56
77737;BME280;66903;59.926;30.404;2023-03-01T02:04:29;101170.09;;;23.49;26.92
77737;BME280;66903;59.926;30.404;2023-03-01T02:09:33;101175.50;;;23.51;26.84
77737;BME280;66903;59.926;30.404;2023-03-01T02:14:34;101185.50;;;23.48;27.13
77737;BME280;66903;59.926;30.404;2023-03-01T02:19:54;101186.66;;;23.52;27.26
77737;BME280;66903;59.926;30.404;2023-03-01T02:30:04;101192.06;;;23.49;27.33
77737;BME280;66903;59.926;30.404;2023-03-01T02:35:05;101192.63;;;23.46;27.40
77737;BME280;66903;59.926;30.404;2023-03-01T02:40:11;101195.50;;;23.46;27.46
77737;BME280;66903;59.926;30.404;2023-03-01T02:45:13;101194.66;;;23.40;27.41
77737;BME280;66903;59.926;30.404;2023-03-01T02:55:29;101193.22;;;23.43;27.56
77737;BME280;66903;59.926;30.404;2023-03-01T03:00:36;101192.06;;;23.44;27.35
77737;BME280;66903;59.926;30.404;2023-03-01T03:05:40;101202.63;;;23.43;27.46
77737;BME280;66903;59.926;30.404;2023-03-01T03:10:41;101188.69;;;23.42;27.49
77737;BME280;66903;59.926;30.404;2023-03-01T03:15:43;101195.50;;;23.41;27.77
77737;BME280;66903;59.926;30.404;2023-03-01T03:21:08;101181.53;;;23.39;27.70
77737;BME280;66903;59.926;30.404;2023-03-01T03:26:36;101198.34;;;23.41;27.57
77737;BME280;66903;59.926;30.404;2023-03-01T03:31:45;101194.66;;;23.40;27.79
77737;BME280;66903;59.926;30.404;2023-03-01T03:36:55;101202.94;;;23.42;27.83
77737;BME280;66903;59.926;30.404;2023-03-01T03:41:59;101193.81;;;23.40;27.87
77737;BME280;66903;59.926;30.404;2023-03-01T03:47:00;101200.09;;;23.42;27.89
77737;BME280;66903;59.926;30.404;2023-03-01T03:52:00;101200.09;;;23.42;27.97
77737;BME280;66903;59.926;30.404;2023-03-01T03:57:00;101207.78;;;23.41;27.96
77737;BME280;66903;59.926;30.404;2023-03-01T04:02:01;101207.22;;;23.39;28.14
77737;BME280;66903;59.926;30.404;2023-03-01T04:07:01;101212.34;;;23.37;28.21
77737;BME280;66903;59.926;30.404;2023-03-01T04:12:02;101220.59;;;23.39;27.65
77737;BME280;66903;59.926;30.404;2023-03-01T04:17:02;101202.94;;;23.27;27.64
77737;BME280;66903;59.926;30.404;2023-03-01T04:22:05;101213.50;;;23.11;27.52
77737;BME280;66903;59.926;30.404;2023-03-01T04:27:09;101203.56;;;22.98;27.79
77737;BME280;66903;59.926;30.404;2023-03-01T04:32:10;101211.53;;;22.91;27.67
77737;BME280;66903;59.926;30.404;2023-03-01T04:37:11;101218.13;;;22.82;27.53
77737;BME280;66903;59.926;30.404;2023-03-01T04:42:11;101213.25;;;22.77;27.39
77737;BME280;66903;59.926;30.404;2023-03-01T04:47:12;101207.84;;;22.71;27.17
77737;BME280;66903;59.926;30.404;2023-03-01T04:52:13;101217.81;;;22.63;26.90
77737;BME280;66903;59.926;30.404;2023-03-01T04:57:13;101228.63;;;22.56;27.08
77737;BME280;66903;59.926;30.404;2023-03-01T05:02:14;101249.13;;;22.58;26.97
77737;BME280;66903;59.926;30.404;2023-03-01T05:07:14;101253.13;;;22.57;26.92
77737;BME280;66903;59.926;30.404;2023-03-01T05:12:19;101256.25;;;22.56;26.68
77737;BME280;66903;59.926;30.404;2023-03-01T05:17:19;101263.09;;;22.55;26.92
77737;BME280;66903;59.926;30.404;2023-03-01T05:22:20;101265.94;;;22.55;26.73
77737;BME280;66903;59.926;30.404;2023-03-01T05:27:20;101253.97;;;22.58;26.80
77737;BME280;66903;59.926;30.404;2023-03-01T05:32:22;101258.81;;;22.67;26.96
77737;BME280;66903;59.926;30.404;2023-03-01T05:37:22;101253.13;;;22.77;26.91
77737;BME280;66903;59.926;30.404;2023-03-01T05:42:23;101255.72;;;22.89;26.39
77737;BME280;66903;59.926;30.404;2023-03-01T05:47:23;101256.00;;;22.97;28.34
77737;BME280;66903;59.926;30.404;2023-03-01T05:52:24;101259.13;;;23.01;28.31
77737;BME280;66903;59.926;30.404;2023-03-01T05:57:24;101266.22;;;23.08;28.10
77737;BME280;66903;59.926;30.404;2023-03-01T06:02:25;101266.25;;;23.14;28.00
77737;BME280;66903;59.926;30.404;2023-03-01T06:08:06;101259.38;;;23.25;28.13
77737;BME280;66903;59.926;30.404;2023-03-01T06:13:30;101259.38;;;23.30;28.07
77737;BME280;66903;59.926;30.404;2023-03-01T06:18:49;101261.09;;;23.36;28.00
77737;BME280;66903;59.926;30.404;2023-03-01T06:23:49;101261.94;;;23.41;27.63
77737;BME280;66903;59.926;30.404;2023-03-01T06:28:50;101263.91;;;23.46;27.74
77737;BME280;66903;59.926;30.404;2023-03-01T06:33:50;101249.94;;;23.49;27.50
77737;BME280;66903;59.926;30.404;2023-03-01T06:38:51;101249.63;;;23.51;27.15
77737;BME280;66903;59.926;30.404;2023-03-01T06:49:35;101251.34;;;23.57;26.94
77737;BME280;66903;59.926;30.404;2023-03-01T06:54:35;101261.88;;;23.66;26.86
77737;BME280;66903;59.926;30.404;2023-03-01T06:59:36;101252.66;;;23.84;26.57
77737;BME280;66903;59.926;30.404;2023-03-01T07:04:36;101252.88;;;24.08;26.01
77737;BME280;66903;59.926;30.404;2023-03-01T07:09:37;101240.50;;;24.23;26.09
77737;BME280;66903;59.926;30.404;2023-03-01T07:14:37;101240.97;;;24.83;25.65
77737;BME280;66903;59.926;30.404;2023-03-01T07:19:38;101257.25;;;25.97;25.16
77737;BME280;66903;59.926;30.404;2023-03-01T07:24:38;101255.41;;;26.49;24.81
77737;BME280;66903;59.926;30.404;2023-03-01T07:29:38;101264.38;;;26.61;24.36
77737;BME280;66903;59.926;30.404;2023-03-01T07:34:39;101255.88;;;26.74;24.21
77737;BME280;66903;59.926;30.404;2023-03-01T07:39:40;101254.97;;;27.30;24.16
77737;BME280;66903;59.926;30.404;2023-03-01T07:44:41;101253.16;;;28.69;23.31
77737;BME280;66903;59.926;30.404;2023-03-01T07:49:41;101257.28;;;30.78;22.44
77737;BME280;66903;59.926;30.404;2023-03-01T07:55:06;101247.38;;;32.69;21.28
77737;BME280;66903;59.926;30.404;2023-03-01T08:00:09;101253.16;;;34.44;20.38
77737;BME280;66903;59.926;30.404;2023-03-01T08:05:10;101241.34;;;35.87;20.15
77737;BME280;66903;59.926;30.404;2023-03-01T08:10:11;101231.00;;;36.83;18.89
77737;BME280;66903;59.926;30.404;2023-03-01T08:15:11;101224.88;;;37.68;18.95
77737;BME280;66903;59.926;30.404;2023-03-01T08:20:12;101220.59;;;38.52;17.97
77737;BME280;66903;59.926;30.404;2023-03-01T08:25:12;101221.16;;;39.17;17.51
77737;BME280;66903;59.926;30.404;2023-03-01T08:30:13;101229.16;;;39.53;17.67
77737;BME280;66903;59.926;30.404;2023-03-01T08:35:14;101235.03;;;39.90;17.01
77737;BME280;66903;59.926;30.404;2023-03-01T08:40:14;101234.81;;;40.13;17.53
77737;BME280;66903;59.926;30.404;2023-03-01T08:45:15;101239.09;;;39.86;16.90
77737;BME280;66903;59.926;30.404;2023-03-01T08:50:18;101228.69;;;39.48;16.96
77737;BME280;66903;59.926;30.404;2023-03-01T08:55:18;101238.97;;;39.38;17.01
77737;BME280;66903;59.926;30.404;2023-03-01T09:00:19;101237.13;;;39.56;17.57
77737;BME280;66903;59.926;30.404;2023-03-01T09:05:20;101236.72;;;39.95;17.11
77737;BME280;66903;59.926;30.404;2023-03-01T09:10:20;101223.84;;;40.03;16.56
77737;BME280;66903;59.926;30.404;2023-03-01T09:15:21;101224.22;;;40.01;16.19
77737;BME280;66903;59.926;30.404;2023-03-01T09:20:21;101220.75;;;39.52;16.69
77737;BME280;66903;59.926;30.404;2023-03-01T09:25:24;101214.53;;;39.20;16.80
77737;BME280;66903;59.926;30.404;2023-03-01T09:30:24;101222.78;;;38.33;17.03
77737;BME280;66903;59.926;30.404;2023-03-01T09:35:25;101218.88;;;37.00;17.38
77737;BME280;66903;59.926;30.404;2023-03-01T09:40:26;101212.19;;;35.84;17.90
77737;BME280;66903;59.926;30.404;2023-03-01T09:45:40;101210.44;;;35.08;18.25
77737;BME280;66903;59.926;30.404;2023-03-01T09:50:43;101182.41;;;34.36;18.21
77737;BME280;66903;59.926;30.404;2023-03-01T09:56:02;101191.47;;;34.35;18.34
77737;BME280;66903;59.926;30.404;2023-03-01T10:06:50;101181.44;;;33.27;18.37
77737;BME280;66903;59.926;30.404;2023-03-01T10:11:56;101178.47;;;32.62;18.96
77737;BME280;66903;59.926;30.404;2023-03-01T10:17:08;101173.38;;;32.18;19.03
77737;BME280;66903;59.926;30.404;2023-03-01T10:27:35;101161.81;;;31.42;19.36
77737;BME280;66903;59.926;30.404;2023-03-01T10:32:37;101149.44;;;31.33;19.46
77737;BME280;66903;59.926;30.404;2023-03-01T10:37:56;101141.34;;;31.18;19.70
77737;BME280;66903;59.926;30.404;2023-03-01T10:42:58;101129.38;;;30.65;19.75
77737;BME280;66903;59.926;30.404;2023-03-01T10:53:27;101119.50;;;29.98;20.07
77737;BME280;66903;59.926;30.404;2023-03-01T10:58:30;101112.25;;;29.61;20.77
77737;BME280;66903;59.926;30.404;2023-03-01T11:03:34;101107.78;;;29.38;20.80
77737;BME280;66903;59.926;30.404;2023-03-01T11:13:35;101083.88;;;28.98;20.55
77737;BME280;66903;59.926;30.404;2023-03-01T11:18:37;101084.22;;;28.75;20.84
77737;BME280;66903;59.926;30.404;2023-03-01T11:23:38;101061.69;;;28.46;21.25
77737;BME280;66903;59.926;30.404;2023-03-01T11:28:41;101056.34;;;28.31;21.54
77737;BME280;66903;59.926;30.404;2023-03-01T11:33:59;101056.91;;;28.19;21.47
77737;BME280;66903;59.926;30.404;2023-03-01T11:44:27;101037.34;;;27.86;21.89
77737;BME280;66903;59.926;30.404;2023-03-01T12:00:16;101039.66;;;27.48;22.08
77737;BME280;66903;59.926;30.404;2023-03-01T12:05:45;101024.03;;;27.27;22.06
77737;BME280;66903;59.926;30.404;2023-03-01T12:48:22;100965.66;;;26.23;23.35
77737;BME280;66903;59.926;30.404;2023-03-01T12:53:49;100958.22;;;26.22;23.22
77737;BME280;66903;59.926;30.404;2023-03-01T12:58:57;100964.66;;;26.14;23.67
77737;BME280;66903;59.926;30.404;2023-03-01T13:19:27;100963.16;;;25.84;23.91
77737;BME280;66903;59.926;30.404;2023-03-01T13:24:42;100974.69;;;25.79;24.01
77737;BME280;66903;59.926;30.404;2023-03-01T13:29:50;100953.38;;;25.72;24.22
77737;BME280;66903;59.926;30.404;2023-03-01T13:35:02;100939.13;;;25.67;24.20
77737;BME280;66903;59.926;30.404;2023-03-01T13:45:38;100991.75;;;25.52;24.36
77737;BME280;66903;59.926;30.404;2023-03-01T13:50:50;100971.56;;;25.44;24.86
77737;BME280;66903;59.926;30.404;2023-03-01T13:56:02;100980.44;;;25.42;24.73
77737;BME280;66903;59.926;30.404;2023-03-01T14:01:18;100957.63;;;25.37;24.45
77737;BME280;66903;59.926;30.404;2023-03-01T14:06:23;100972.22;;;25.36;24.85
77737;BME280;66903;59.926;30.404;2023-03-01T14:12:25;100979.09;;;25.35;24.41
77737;BME280;66903;59.926;30.404;2023-03-01T14:22:52;100949.81;;;25.24;25.07
77737;BME280;66903;59.926;30.404;2023-03-01T14:33:06;100956.38;;;24.82;25.44
77737;BME280;66903;59.926;30.404;2023-03-01T14:38:20;100973.38;;;24.69;25.13
77737;BME280;66903;59.926;30.404;2023-03-01T14:43:22;101004.13;;;24.53;25.60
77737;BME280;66903;59.926;30.404;2023-03-01T14:48:25;100998.53;;;24.43;25.67
77737;BME280;66903;59.926;30.404;2023-03-01T14:53:28;100995.16;;;24.36;25.82
77737;BME280;66903;59.926;30.404;2023-03-01T14:58:34;101007.78;;;24.30;25.64
77737;BME280;66903;59.926;30.404;2023-03-01T15:03:43;101002.69;;;24.27;25.93
77737;BME280;66903;59.926;30.404;2023-03-01T15:08:47;101003.31;;;24.19;25.60
77737;BME280;66903;59.926;30.404;2023-03-01T15:13:48;101003.88;;;24.21;25.69
77737;BME280;66903;59.926;30.404;2023-03-01T15:18:51;100993.19;;;24.32;25.91
77737;BME280;66903;59.926;30.404;2023-03-01T15:24:39;100993.13;;;24.42;25.41
77737;BME280;66903;59.926;30.404;2023-03-01T15:29:23;101016.66;;;24.57;25.09
77737;BME280;66903;59.926;30.404;2023-03-01T15:34:37;101025.16;;;24.62;25.01
77737;BME280;66903;59.926;30.404;2023-03-01T15:39:42;101041.69;;;24.65;25.34
77737;BME280;66903;59.926;30.404;2023-03-01T15:44:43;101038.28;;;24.63;25.18
77737;BME280;66903;59.926;30.404;2023-03-01T15:49:45;101062.53;;;24.66;25.34
77737;BME280;66903;59.926;30.404;2023-03-01T15:54:45;101072.50;;;24.68;25.16
77737;BME280;66903;59.926;30.404;2023-03-01T15:59:46;101075.34;;;24.68;25.24
77737;BME280;66903;59.926;30.404;2023-03-01T16:04:47;101078.69;;;24.52;25.22
77737;BME280;66903;59.926;30.404;2023-03-01T16:09:52;101094.25;;;24.36;25.20
77737;BME280;66903;59.926;30.404;2023-03-01T16:15:15;101091.53;;;24.21;25.29
77737;BME280;66903;59.926;30.404;2023-03-01T16:20:31;101085.06;;;24.10;25.54
77737;BME280;66903;59.926;30.404;2023-03-01T16:25:33;101086.84;;;24.01;25.22
77737;BME280;66903;59.926;30.404;2023-03-01T16:30:46;101094.81;;;23.99;25.61
77737;BME280;66903;59.926;30.404;2023-03-01T16:35:50;101088.91;;;23.85;25.74
77737;BME280;66903;59.926;30.404;2023-03-01T16:40:52;101105.13;;;23.90;25.83
77737;BME280;66903;59.926;30.404;2023-03-01T16:45:52;101125.44;;;23.83;25.85
77737;BME280;66903;59.926;30.404;2023-03-01T16:51:00;101133.72;;;23.80;25.85
77737;BME280;66903;59.926;30.404;2023-03-01T16:56:01;101150.63;;;23.71;25.83
77737;BME280;66903;59.926;30.404;2023-03-01T17:01:18;101150.91;;;23.70;26.16
77737;BME280;66903;59.926;30.404;2023-03-01T17:06:36;101156.34;;;23.66;26.10
77737;BME280;66903;59.926;30.404;2023-03-01T17:11:40;101155.25;;;23.57;25.83
77737;BME280;66903;59.926;30.404;2023-03-01T17:16:42;101157.84;;;23.49;26.24
77737;BME280;66903;59.926;30.404;2023-03-01T17:21:44;101172.66;;;23.51;26.08
77737;BME280;66903;59.926;30.404;2023-03-01T17:26:44;101180.66;;;23.49;26.28
77737;BME280;66903;59.926;30.404;2023-03-01T17:31:45;101176.38;;;23.46;25.75
77737;BME280;66903;59.926;30.404;2023-03-01T17:36:46;101177.81;;;23.44;25.74
77737;BME280;66903;59.926;30.404;2023-03-01T17:41:49;101171.28;;;23.33;25.83
77737;BME280;66903;59.926;30.404;2023-03-01T17:46:50;101188.66;;;23.37;25.81
77737;BME280;66903;59.926;30.404;2023-03-01T17:51:51;101191.53;;;23.37;26.31
77737;BME280;66903;59.926;30.404;2023-03-01T17:56:52;101184.41;;;23.34;26.27
77737;BME280;66903;59.926;30.404;2023-03-01T18:01:53;101195.25;;;23.32;25.83
77737;BME280;66903;59.926;30.404;2023-03-01T18:06:53;101196.97;;;23.28;26.19
77737;BME280;66903;59.926;30.404;2023-03-01T18:11:55;101187.84;;;23.21;26.10
77737;BME280;66903;59.926;30.404;2023-03-01T18:16:55;101207.78;;;23.21;26.02
77737;BME280;66903;59.926;30.404;2023-03-01T18:21:56;101224.88;;;23.21;25.93
77737;BME280;66903;59.926;30.404;2023-03-01T18:26:56;101227.16;;;23.19;25.96
77737;BME280;66903;59.926;30.404;2023-03-01T18:31:57;101235.44;;;23.21;26.32
77737;BME280;66903;59.926;30.404;2023-03-01T18:36:58;101252.53;;;23.26;26.21
77737;BME280;66903;59.926;30.404;2023-03-01T18:41:58;101245.69;;;23.27;26.31
77737;BME280;66903;59.926;30.404;2023-03-01T18:46:59;101248.84;;;23.35;26.39
77737;BME280;66903;59.926;30.404;2023-03-01T18:51:59;101248.25;;;23.33;26.43
77737;BME280;66903;59.926;30.404;2023-03-01T18:57:00;101250.25;;;23.28;26.44
77737;BME280;66903;59.926;30.404;2023-03-01T19:02:01;101237.44;;;23.20;26.23
77737;BME280;66903;59.926;30.404;2023-03-01T19:07:01;101236.00;;;23.18;26.18
77737;BME280;66903;59.926;30.404;2023-03-01T19:12:02;101245.41;;;23.18;26.34
77737;BME280;66903;59.926;30.404;2023-03-01T19:17:05;101253.69;;;23.20;26.42
77737;BME280;66903;59.926;30.404;2023-03-01T19:22:06;101291.59;;;23.20;26.67
77737;BME280;66903;59.926;30.404;2023-03-01T19:27:07;101310.69;;;23.20;26.53
77737;BME280;66903;59.926;30.404;2023-03-01T19:32:07;101318.94;;;23.16;25.69
77737;BME280;66903;59.926;30.404;2023-03-01T19:37:08;101311.28;;;23.07;25.43
77737;BME280;66903;59.926;30.404;2023-03-01T19:42:09;101298.72;;;23.08;25.09
77737;BME280;66903;59.926;30.404;2023-03-01T19:47:10;101311.25;;;23.22;25.27
77737;BME280;66903;59.926;30.404;2023-03-01T19:52:11;101281.59;;;23.48;25.22
77737;BME280;66903;59.926;30.404;2023-03-01T19:57:11;101267.59;;;23.66;25.28
77737;BME280;66903;59.926;30.404;2023-03-01T20:02:12;101276.97;;;23.77;24.95
77737;BME280;66903;59.926;30.404;2023-03-01T20:07:12;101297.19;;;23.85;25.01
77737;BME280;66903;59.926;30.404;2023-03-01T20:12:13;101301.41;;;23.93;25.32
77737;BME280;66903;59.926;30.404;2023-03-01T20:17:13;101305.41;;;23.97;25.22
77737;BME280;66903;59.926;30.404;2023-03-01T20:22:14;101311.13;;;23.97;25.24
77737;BME280;66903;59.926;30.404;2023-03-01T20:27:15;101317.69;;;23.97;25.41
77737;BME280;66903;59.926;30.404;2023-03-01T20:32:15;101316.81;;;23.97;25.55
77737;BME280;66903;59.926;30.404;2023-03-01T20:37:16;101334.53;;;23.99;25.88
77737;BME280;66903;59.926;30.404;2023-03-01T20:42:16;101329.41;;;24.01;25.92
77737;BME280;66903;59.926;30.404;2023-03-01T20:47:17;101329.09;;;24.07;25.75
77737;BME280;66903;59.926;30.404;2023-03-01T20:52:20;101344.50;;;24.12;26.01
77737;BME280;66903;59.926;30.404;2023-03-01T20:57:20;101339.63;;;24.12;25.69
77737;BME280;66903;59.926;30.404;2023-03-01T21:02:21;101334.22;;;24.10;25.75
77737;BME280;66903;59.926;30.404;2023-03-01T21:07:21;101329.66;;;24.09;25.81
77737;BME280;66903;59.926;30.404;2023-03-01T21:12:22;101324.81;;;24.10;25.98
77737;BME280;66903;59.926;30.404;2023-03-01T21:17:43;101318.22;;;24.15;26.28
77737;BME280;66903;59.926;30.404;2023-03-01T21:22:50;101311.34;;;24.16;26.66
77737;BME280;66903;59.926;30.404;2023-03-01T21:27:50;101291.66;;;24.14;26.01
77737;BME280;66903;59.926;30.404;2023-03-01T21:32:51;101307.41;;;24.12;26.01
77737;BME280;66903;59.926;30.404;2023-03-01T21:37:51;101316.81;;;24.07;26.42
77737;BME280;66903;59.926;30.404;2023-03-01T21:42:55;101306.56;;;24.06;26.39
77737;BME280;66903;59.926;30.404;2023-03-01T21:47:58;101303.13;;;24.04;26.09
77737;BME280;66903;59.926;30.404;2023-03-01T21:52:59;101312.84;;;24.03;25.87
77737;BME280;66903;59.926;30.404;2023-03-01T21:58:07;101306.25;;;24.07;25.98
77737;BME280;66903;59.926;30.404;2023-03-01T22:03:10;101324.81;;;24.05;26.56
77737;BME280;66903;59.926;30.404;2023-03-01T22:08:11;101326.25;;;24.07;26.71
77737;BME280;66903;59.926;30.404;2023-03-01T22:13:39;101320.22;;;24.14;26.60
77737;BME280;66903;59.926;30.404;2023-03-01T22:19:19;101297.38;;;24.14;26.41
77737;BME280;66903;59.926;30.404;2023-03-01T22:25:15;101309.34;;;24.16;26.60
77737;BME280;66903;59.926;30.404;2023-03-01T22:30:49;101301.06;;;24.20;26.48
77737;BME280;66903;59.926;30.404;2023-03-01T22:35:56;101307.06;;;24.18;26.73
77737;BME280;66903;59.926;30.404;2023-03-01T22:41:02;101299.63;;;24.22;26.65
77737;BME280;66903;59.926;30.404;2023-03-01T22:46:16;101299.34;;;24.24;26.63
77737;BME280;66903;59.926;30.404;2023-03-01T22:51:37;101296.78;;;24.22;27.13
77737;BME280;66903;59.926;30.404;2023-03-01T22:56:38;101287.94;;;24.19;27.13
77737;BME280;66903;59.926;30.404;2023-03-01T23:01:40;101303.63;;;24.21;27.26
77737;BME280;66903;59.926;30.404;2023-03-01T23:07:00;101286.75;;;24.25;26.63
77737;BME280;66903;59.926;30.404;2023-03-01T23:12:12;101281.91;;;24.25;26.98
77737;BME280;66903;59.926;30.404;2023-03-01T23:17:28;101278.50;;;24.23;27.31
77737;BME280;66903;59.926;30.404;2023-03-01T23:22:29;101278.50;;;24.23;27.12
77737;BME280;66903;59.926;30.404;2023-03-01T23:27:30;101267.63;;;24.25;27.40
77737;BME280;66903;59.926;30.404;2023-03-01T23:32:34;101287.63;;;24.25;27.50
77737;BME280;66903;59.926;30.404;2023-03-01T23:37:39;101291.34;;;24.26;27.37
77737;BME280;66903;59.926;30.404;2023-03-01T23:42:40;101305.63;;;24.26;27.74
77737;BME280;66903;59.926;30.404;2023-03-01T23:53:19;101304.75;;;24.25;27.64
77737;BME280;66903;59.926;30.404;2023-03-01T23:58:20;101291.34;;;24.26;27.61
